sensor_id;sensor_type;location;lat;lon;timestamp;pressure;altitude;pressure_sealevel;temperature;humidity
61488;BME280;47351;53.326;-6.298;2023-03-25T00:00:36;99070.25;;;7.85;83.36
61488;BME280;47351;53.326;-6.298;2023-03-25T00:03:48;99076.14;;;7.82;83.63
61488;BME280;47351;53.326;-6.298;2023-03-25T00:06:54;99080.26;;;7.80;83.88
61488;BME280;47351;53.326;-6.298;2023-03-25T00:10:06;99085.07;;;7.78;83.86
61488;BME280;47351;53.326;-6.298;2023-03-25T00:13:17;99093.48;;;7.76;84.17
61488;BME280;47351;53.326;-6.298;2023-03-25T00:16:28;99103.93;;;7.75;84.39
61488;BME280;47351;53.326;-6.298;2023-03-25T00:19:39;99109.83;;;7.76;84.53
61488;BME280;47351;53.326;-6.298;2023-03-25T00:22:54;99116.84;;;7.78;84.86
61488;BME280;47351;53.326;-6.298;2023-03-25T00:26:06;99123.20;;;7.82;85.22
61488;BME280;47351;53.326;-6.298;2023-03-25T00:29:22;99125.11;;;7.85;85.69
61488;BME280;47351;53.326;-6.298;2023-03-25T00:32:32;99122.75;;;7.87;86.00
61488;BME280;47351;53.326;-6.298;2023-03-25T00:35:44;99128.91;;;7.87;85.95
61488;BME280;47351;53.326;-6.298;2023-03-25T00:38:58;99132.46;;;7.87;86.22
61488;BME280;47351;53.326;-6.298;2023-03-25T00:42:09;99140.86;;;7.87;86.26
61488;BME280;47351;53.326;-6.298;2023-03-25T00:45:22;99139.52;;;7.85;86.46
61488;BME280;47351;53.326;-6.298;2023-03-25T00:48:34;99147.02;;;7.83;86.43
61488;BME280;47351;53.326;-6.298;2023-03-25T00:51:46;99152.41;;;7.81;86.56
61488;BME280;47351;53.326;-6.298;2023-03-25T00:55:02;99154.29;;;7.79;86.42
61488;BME280;47351;53.326;-6.298;2023-03-25T00:58:13;99158.56;;;7.77;86.43
61488;BME280;47351;53.326;-6.298;2023-03-25T01:01:25;99162.24;;;7.76;86.64
61488;BME280;47351;53.326;-6.298;2023-03-25T01:04:37;99169.55;;;7.75;86.63
61488;BME280;47351;53.326;-6.298;2023-03-25T01:07:51;99177.14;;;7.73;86.74
61488;BME280;47351;53.326;-6.298;2023-03-25T01:11:02;99180.11;;;7.72;86.85
61488;BME280;47351;53.326;-6.298;2023-03-25T01:14:13;99186.76;;;7.70;86.91
61488;BME280;47351;53.326;-6.298;2023-03-25T01:17:24;99186.29;;;7.66;86.78
61488;BME280;47351;53.326;-6.298;2023-03-25T01:20:35;99186.92;;;7.63;86.78
61488;BME280;47351;53.326;-6.298;2023-03-25T01:23:48;99189.28;;;7.62;86.65
61488;BME280;47351;53.326;-6.298;2023-03-25T01:26:59;99186.27;;;7.58;86.34
61488;BME280;47351;53.326;-6.298;2023-03-25T01:30:11;99190.95;;;7.53;86.11
61488;BME280;47351;53.326;-6.298;2023-03-25T01:33:17;99196.92;;;7.48;85.86
61488;BME280;47351;53.326;-6.298;2023-03-25T01:36:28;99197.01;;;7.42;85.62
61488;BME280;47351;53.326;-6.298;2023-03-25T01:39:39;99200.96;;;7.37;85.59
61488;BME280;47351;53.326;-6.298;2023-03-25T01:42:49;99204.48;;;7.31;85.65
61488;BME280;47351;53.326;-6.298;2023-03-25T01:46:01;99204.08;;;7.27;85.93
61488;BME280;47351;53.326;-6.298;2023-03-25T01:49:13;99208.30;;;7.23;86.25
61488;BME280;47351;53.326;-6.298;2023-03-25T01:52:25;99213.63;;;7.19;86.54
61488;BME280;47351;53.326;-6.298;2023-03-25T01:55:38;99221.95;;;7.16;86.92
61488;BME280;47351;53.326;-6.298;2023-03-25T01:58:49;99223.50;;;7.13;87.28
61488;BME280;47351;53.326;-6.298;2023-03-25T02:02:01;99228.49;;;7.12;87.75
61488;BME280;47351;53.326;-6.298;2023-03-25T02:05:16;99228.97;;;7.11;87.93
61488;BME280;47351;53.326;-6.298;2023-03-25T02:08:28;99232.66;;;7.10;88.23
61488;BME280;47351;53.326;-6.298;2023-03-25T02:11:42;99241.11;;;7.10;88.54
61488;BME280;47351;53.326;-6.298;2023-03-25T02:14:52;99241.17;;;7.13;88.70
61488;BME280;47351;53.326;-6.298;2023-03-25T02:18:12;99251.11;;;7.16;88.75
61488;BME280;47351;53.326;-6.298;2023-03-25T02:21:33;99256.05;;;7.18;88.87
61488;BME280;47351;53.326;-6.298;2023-03-25T02:28:22;99268.36;;;7.15;88.45
61488;BME280;47351;53.326;-6.298;2023-03-25T02:31:44;99278.09;;;7.14;88.54
61488;BME280;47351;53.326;-6.298;2023-03-25T02:38:32;99289.90;;;7.13;88.61
61488;BME280;47351;53.326;-6.298;2023-03-25T02:41:40;99293.77;;;7.12;88.55
61488;BME280;47351;53.326;-6.298;2023-03-25T02:44:49;99300.73;;;7.10;88.42
61488;BME280;47351;53.326;-6.298;2023-03-25T02:48:04;99310.21;;;7.08;88.39
61488;BME280;47351;53.326;-6.298;2023-03-25T02:51:18;99318.94;;;7.04;88.29
61488;BME280;47351;53.326;-6.298;2023-03-25T02:54:31;99328.64;;;7.00;88.12
61488;BME280;47351;53.326;-6.298;2023-03-25T02:57:46;99336.30;;;6.96;88.16
61488;BME280;47351;53.326;-6.298;2023-03-25T03:01:01;99344.42;;;6.93;88.38
61488;BME280;47351;53.326;-6.298;2023-03-25T03:04:12;99349.05;;;6.91;88.49
61488;BME280;47351;53.326;-6.298;2023-03-25T03:07:23;99350.26;;;6.90;88.67
61488;BME280;47351;53.326;-6.298;2023-03-25T03:10:36;99361.09;;;6.88;88.68
61488;BME280;47351;53.326;-6.298;2023-03-25T03:13:55;99368.54;;;6.87;88.83
61488;BME280;47351;53.326;-6.298;2023-03-25T03:17:11;99376.13;;;6.86;88.89
61488;BME280;47351;53.326;-6.298;2023-03-25T03:20:24;99384.41;;;6.83;88.87
61488;BME280;47351;53.326;-6.298;2023-03-25T03:23:43;99393.33;;;6.79;88.99
61488;BME280;47351;53.326;-6.298;2023-03-25T03:26:58;99396.40;;;6.77;89.23
61488;BME280;47351;53.326;-6.298;2023-03-25T03:30:12;99391.08;;;6.75;89.27
61488;BME280;47351;53.326;-6.298;2023-03-25T03:33:25;99396.56;;;6.73;89.32
61488;BME280;47351;53.326;-6.298;2023-03-25T03:36:33;99401.40;;;6.71;89.31
61488;BME280;47351;53.326;-6.298;2023-03-25T03:39:47;99408.20;;;6.71;89.43
61488;BME280;47351;53.326;-6.298;2023-03-25T03:42:59;99415.12;;;6.69;89.42
61488;BME280;47351;53.326;-6.298;2023-03-25T03:46:12;99426.77;;;6.68;89.57
61488;BME280;47351;53.326;-6.298;2023-03-25T03:49:26;99428.35;;;6.67;89.62
61488;BME280;47351;53.326;-6.298;2023-03-25T03:52:39;99442.92;;;6.65;89.64
61488;BME280;47351;53.326;-6.298;2023-03-25T03:55:51;99446.14;;;6.63;89.88
61488;BME280;47351;53.326;-6.298;2023-03-25T03:59:05;99455.20;;;6.63;90.08
61488;BME280;47351;53.326;-6.298;2023-03-25T04:02:19;99459.86;;;6.62;90.09
61488;BME280;47351;53.326;-6.298;2023-03-25T04:05:29;99461.61;;;6.63;90.24
61488;BME280;47351;53.326;-6.298;2023-03-25T04:08:45;99464.95;;;6.63;90.19
61488;BME280;47351;53.326;-6.298;2023-03-25T04:12:01;99471.63;;;6.63;90.22
61488;BME280;47351;53.326;-6.298;2023-03-25T04:15:13;99472.19;;;6.63;90.02
61488;BME280;47351;53.326;-6.298;2023-03-25T04:18:24;99474.55;;;6.63;89.73
61488;BME280;47351;53.326;-6.298;2023-03-25T04:21:36;99486.56;;;6.61;89.62
61488;BME280;47351;53.326;-6.298;2023-03-25T04:24:47;99489.57;;;6.60;89.47
61488;BME280;47351;53.326;-6.298;2023-03-25T04:28:00;99494.05;;;6.58;89.33
61488;BME280;47351;53.326;-6.298;2023-03-25T04:31:12;99494.11;;;6.55;89.19
61488;BME280;47351;53.326;-6.298;2023-03-25T04:34:25;99498.33;;;6.52;89.11
61488;BME280;47351;53.326;-6.298;2023-03-25T04:37:36;99503.46;;;6.49;89.24
61488;BME280;47351;53.326;-6.298;2023-03-25T04:40:47;99508.35;;;6.48;89.38
61488;BME280;47351;53.326;-6.298;2023-03-25T04:43:58;99518.98;;;6.46;89.35
61488;BME280;47351;53.326;-6.298;2023-03-25T04:47:09;99525.75;;;6.44;89.27
61488;BME280;47351;53.326;-6.298;2023-03-25T04:50:23;99535.42;;;6.43;89.34
61488;BME280;47351;53.326;-6.298;2023-03-25T04:53:35;99545.02;;;6.43;89.52
61488;BME280;47351;53.326;-6.298;2023-03-25T04:56:39;99552.97;;;6.45;89.78
61488;BME280;47351;53.326;-6.298;2023-03-25T04:59:50;99555.05;;;6.48;89.97
61488;BME280;47351;53.326;-6.298;2023-03-25T05:03:02;99560.81;;;6.55;90.26
61488;BME280;47351;53.326;-6.298;2023-03-25T05:06:12;99556.27;;;6.59;90.29
61488;BME280;47351;53.326;-6.298;2023-03-25T05:09:24;99563.23;;;6.64;90.50
61488;BME280;47351;53.326;-6.298;2023-03-25T05:12:34;99561.70;;;6.68;90.45
61488;BME280;47351;53.326;-6.298;2023-03-25T05:15:45;99562.61;;;6.71;90.51
61488;BME280;47351;53.326;-6.298;2023-03-25T05:18:57;99567.20;;;6.73;90.70
61488;BME280;47351;53.326;-6.298;2023-03-25T05:22:08;99569.09;;;6.74;90.90
61488;BME280;47351;53.326;-6.298;2023-03-25T05:25:19;99572.52;;;6.75;91.05
61488;BME280;47351;53.326;-6.298;2023-03-25T05:28:30;99578.67;;;6.77;91.34
61488;BME280;47351;53.326;-6.298;2023-03-25T05:31:33;99586.59;;;6.79;91.38
61488;BME280;47351;53.326;-6.298;2023-03-25T05:34:44;99595.13;;;6.83;91.47
61488;BME280;47351;53.326;-6.298;2023-03-25T05:37:55;99596.92;;;6.86;91.36
61488;BME280;47351;53.326;-6.298;2023-03-25T05:41:07;99601.90;;;6.87;91.38
61488;BME280;47351;53.326;-6.298;2023-03-25T05:44:20;99608.31;;;6.89;91.55
61488;BME280;47351;53.326;-6.298;2023-03-25T05:47:31;99616.66;;;6.88;91.53
61488;BME280;47351;53.326;-6.298;2023-03-25T05:50:42;99619.79;;;6.87;91.36
61488;BME280;47351;53.326;-6.298;2023-03-25T05:53:53;99623.45;;;6.86;91.32
61488;BME280;47351;53.326;-6.298;2023-03-25T05:57:04;99629.61;;;6.85;91.30
61488;BME280;47351;53.326;-6.298;2023-03-25T06:00:16;99633.41;;;6.84;91.38
61488;BME280;47351;53.326;-6.298;2023-03-25T06:03:32;99649.42;;;6.84;91.54
61488;BME280;47351;53.326;-6.298;2023-03-25T06:06:44;99657.31;;;6.83;91.59
61488;BME280;47351;53.326;-6.298;2023-03-25T06:09:55;99660.40;;;6.82;91.85
61488;BME280;47351;53.326;-6.298;2023-03-25T06:13:07;99660.47;;;6.84;92.17
61488;BME280;47351;53.326;-6.298;2023-03-25T06:16:09;99661.30;;;6.85;92.23
61488;BME280;47351;53.326;-6.298;2023-03-25T06:19:20;99669.40;;;6.88;92.24
61488;BME280;47351;53.326;-6.298;2023-03-25T06:22:35;99675.55;;;6.94;92.39
61488;BME280;47351;53.326;-6.298;2023-03-25T06:25:46;99672.27;;;7.01;92.48
61488;BME280;47351;53.326;-6.298;2023-03-25T06:28:58;99673.34;;;7.07;92.32
61488;BME280;47351;53.326;-6.298;2023-03-25T06:32:11;99679.57;;;7.11;92.12
61488;BME280;47351;53.326;-6.298;2023-03-25T06:35:23;99681.81;;;7.15;92.00
61488;BME280;47351;53.326;-6.298;2023-03-25T06:38:28;99690.81;;;7.19;91.96
61488;BME280;47351;53.326;-6.298;2023-03-25T06:41:42;99694.12;;;7.25;91.93
61488;BME280;47351;53.326;-6.298;2023-03-25T06:44:53;99702.18;;;7.36;91.89
61488;BME280;47351;53.326;-6.298;2023-03-25T06:48:05;99709.05;;;7.48;91.68
61488;BME280;47351;53.326;-6.298;2023-03-25T06:51:17;99718.82;;;7.60;91.42
61488;BME280;47351;53.326;-6.298;2023-03-25T06:54:23;99723.30;;;7.66;91.08
61488;BME280;47351;53.326;-6.298;2023-03-25T06:57:34;99727.93;;;7.73;90.79
61488;BME280;47351;53.326;-6.298;2023-03-25T07:00:45;99739.04;;;7.85;90.37
61488;BME280;47351;53.326;-6.298;2023-03-25T07:03:55;99743.58;;;7.92;90.05
61488;BME280;47351;53.326;-6.298;2023-03-25T07:07:07;99757.30;;;7.95;89.85
61488;BME280;47351;53.326;-6.298;2023-03-25T07:10:18;99765.88;;;7.98;89.77
61488;BME280;47351;53.326;-6.298;2023-03-25T07:17:16;99771.19;;;8.11;89.45
61488;BME280;47351;53.326;-6.298;2023-03-25T07:20:12;99773.55;;;8.32;89.23
61488;BME280;47351;53.326;-6.298;2023-03-25T07:23:08;99770.35;;;8.60;88.47
61488;BME280;47351;53.326;-6.298;2023-03-25T07:26:23;99770.45;;;8.68;87.40
61488;BME280;47351;53.326;-6.298;2023-03-25T07:29:23;99768.84;;;8.61;86.97
61488;BME280;47351;53.326;-6.298;2023-03-25T07:32:37;99770.92;;;9.30;86.35
61488;BME280;47351;53.326;-6.298;2023-03-25T07:35:36;99763.30;;;10.47;84.56
61488;BME280;47351;53.326;-6.298;2023-03-25T07:38:37;99759.77;;;11.53;81.83
61488;BME280;47351;53.326;-6.298;2023-03-25T07:41:38;99767.27;;;12.45;79.11
61488;BME280;47351;53.326;-6.298;2023-03-25T07:44:40;99769.48;;;13.15;76.19
61488;BME280;47351;53.326;-6.298;2023-03-25T07:47:32;99781.63;;;13.14;74.37
61488;BME280;47351;53.326;-6.298;2023-03-25T07:50:27;99789.01;;;12.53;72.61
61488;BME280;47351;53.326;-6.298;2023-03-25T07:53:20;99797.71;;;11.97;73.21
61488;BME280;47351;53.326;-6.298;2023-03-25T07:56:11;99800.16;;;12.69;72.37
61488;BME280;47351;53.326;-6.298;2023-03-25T07:59:03;99803.14;;;13.31;71.22
61488;BME280;47351;53.326;-6.298;2023-03-25T08:01:53;99806.83;;;13.80;69.84
61488;BME280;47351;53.326;-6.298;2023-03-25T08:04:44;99808.30;;;14.38;67.39
61488;BME280;47351;53.326;-6.298;2023-03-25T08:07:40;99802.44;;;14.43;65.53
61488;BME280;47351;53.326;-6.298;2023-03-25T08:10:31;99804.04;;;15.07;64.88
61488;BME280;47351;53.326;-6.298;2023-03-25T08:13:23;99802.41;;;15.67;63.45
61488;BME280;47351;53.326;-6.298;2023-03-25T08:16:15;99804.73;;;15.46;62.45
61488;BME280;47351;53.326;-6.298;2023-03-25T08:19:09;99806.80;;;15.65;61.60
61488;BME280;47351;53.326;-6.298;2023-03-25T08:22:02;99816.86;;;15.21;60.82
61488;BME280;47351;53.326;-6.298;2023-03-25T08:25:03;99823.04;;;16.21;59.89
61488;BME280;47351;53.326;-6.298;2023-03-25T08:27:54;99828.42;;;15.72;59.36
61488;BME280;47351;53.326;-6.298;2023-03-25T08:30:45;99833.42;;;15.43;60.49
61488;BME280;47351;53.326;-6.298;2023-03-25T08:33:39;99842.29;;;14.78;60.91
61488;BME280;47351;53.326;-6.298;2023-03-25T08:36:33;99846.68;;;14.86;60.38
61488;BME280;47351;53.326;-6.298;2023-03-25T08:39:27;99851.08;;;14.90;59.65
61488;BME280;47351;53.326;-6.298;2023-03-25T08:42:25;99859.80;;;14.38;60.51
61488;BME280;47351;53.326;-6.298;2023-03-25T08:45:15;99864.82;;;14.15;61.51
61488;BME280;47351;53.326;-6.298;2023-03-25T08:48:07;99867.16;;;14.17;61.42
61488;BME280;47351;53.326;-6.298;2023-03-25T08:51:01;99873.02;;;14.72;61.54
61488;BME280;47351;53.326;-6.298;2023-03-25T08:53:52;99875.43;;;15.22;58.89
61488;BME280;47351;53.326;-6.298;2023-03-25T08:56:44;99882.90;;;14.82;58.92
61488;BME280;47351;53.326;-6.298;2023-03-25T08:59:34;99884.11;;;15.19;57.91
61488;BME280;47351;53.326;-6.298;2023-03-25T09:02:28;99892.94;;;15.16;58.10
61488;BME280;47351;53.326;-6.298;2023-03-25T09:05:19;99890.91;;;15.30;58.03
61488;BME280;47351;53.326;-6.298;2023-03-25T09:08:10;99900.70;;;15.56;57.36
61488;BME280;47351;53.326;-6.298;2023-03-25T09:11:01;99895.54;;;16.89;55.58
61488;BME280;47351;53.326;-6.298;2023-03-25T09:13:51;99898.84;;;18.61;52.38
61488;BME280;47351;53.326;-6.298;2023-03-25T09:16:42;99901.23;;;19.68;49.68
61488;BME280;47351;53.326;-6.298;2023-03-25T09:19:34;99912.77;;;18.59;49.28
61488;BME280;47351;53.326;-6.298;2023-03-25T09:22:25;99919.52;;;17.07;51.35
61488;BME280;47351;53.326;-6.298;2023-03-25T09:25:16;99924.75;;;15.81;53.85
61488;BME280;47351;53.326;-6.298;2023-03-25T09:28:07;99927.83;;;14.87;55.95
61488;BME280;47351;53.326;-6.298;2023-03-25T09:31:00;99935.91;;;14.27;57.24
61488;BME280;47351;53.326;-6.298;2023-03-25T09:33:51;99936.04;;;14.00;57.44
61488;BME280;47351;53.326;-6.298;2023-03-25T09:36:49;99932.98;;;14.43;57.37
61488;BME280;47351;53.326;-6.298;2023-03-25T09:39:40;99928.44;;;15.59;54.65
61488;BME280;47351;53.326;-6.298;2023-03-25T09:42:32;99931.42;;;15.11;54.97
61488;BME280;47351;53.326;-6.298;2023-03-25T09:45:29;99941.61;;;14.60;55.85
61488;BME280;47351;53.326;-6.298;2023-03-25T09:48:23;99928.36;;;16.49;54.05
61488;BME280;47351;53.326;-6.298;2023-03-25T09:51:17;99923.77;;;19.13;51.40
61488;BME280;47351;53.326;-6.298;2023-03-25T09:54:13;99915.94;;;21.54;47.30
61488;BME280;47351;53.326;-6.298;2023-03-25T09:57:06;99915.66;;;23.46;43.16
61488;BME280;47351;53.326;-6.298;2023-03-25T09:59:58;99916.05;;;24.63;40.42
61488;BME280;47351;53.326;-6.298;2023-03-25T10:02:55;99929.06;;;23.53;38.15
61488;BME280;47351;53.326;-6.298;2023-03-25T10:05:52;99933.67;;;22.60;39.13
61488;BME280;47351;53.326;-6.298;2023-03-25T10:11:52;99935.48;;;21.75;39.59
61488;BME280;47351;53.326;-6.298;2023-03-25T10:14:50;99931.27;;;22.70;38.31
61488;BME280;47351;53.326;-6.298;2023-03-25T10:17:48;99928.17;;;23.95;36.37
61488;BME280;47351;53.326;-6.298;2023-03-25T10:20:47;99939.01;;;23.28;36.81
61488;BME280;47351;53.326;-6.298;2023-03-25T10:23:45;99946.07;;;21.47;38.13
61488;BME280;47351;53.326;-6.298;2023-03-25T10:26:39;99954.13;;;20.03;39.67
61488;BME280;47351;53.326;-6.298;2023-03-25T10:29:33;99957.80;;;19.60;40.57
61488;BME280;47351;53.326;-6.298;2023-03-25T10:32:32;99954.09;;;21.41;39.15
61488;BME280;47351;53.326;-6.298;2023-03-25T10:35:26;99956.35;;;23.42;37.51
61488;BME280;47351;53.326;-6.298;2023-03-25T10:38:40;99955.31;;;25.64;34.21
61488;BME280;47351;53.326;-6.298;2023-03-25T10:41:37;99960.22;;;26.98;31.81
61488;BME280;47351;53.326;-6.298;2023-03-25T10:44:31;99963.35;;;25.50;32.54
61488;BME280;47351;53.326;-6.298;2023-03-25T10:47:23;99972.65;;;24.31;33.48
61488;BME280;47351;53.326;-6.298;2023-03-25T10:50:16;99979.48;;;22.66;35.08
61488;BME280;47351;53.326;-6.298;2023-03-25T10:53:07;99991.88;;;20.75;37.04
61488;BME280;47351;53.326;-6.298;2023-03-25T10:56:01;99996.79;;;19.37;38.67
61488;BME280;47351;53.326;-6.298;2023-03-25T10:58:52;99996.86;;;19.28;39.40
61488;BME280;47351;53.326;-6.298;2023-03-25T11:01:43;99995.08;;;20.13;39.46
61488;BME280;47351;53.326;-6.298;2023-03-25T11:04:35;99990.25;;;19.85;39.35
61488;BME280;47351;53.326;-6.298;2023-03-25T11:07:27;99990.66;;;18.82;40.26
61488;BME280;47351;53.326;-6.298;2023-03-25T11:10:19;99990.27;;;17.96;41.71
61488;BME280;47351;53.326;-6.298;2023-03-25T11:13:11;99992.30;;;17.32;42.83
61488;BME280;47351;53.326;-6.298;2023-03-25T11:16:05;99993.39;;;16.74;43.75
61488;BME280;47351;53.326;-6.298;2023-03-25T11:18:57;99997.02;;;16.15;44.92
61488;BME280;47351;53.326;-6.298;2023-03-25T11:21:52;100006.30;;;15.82;46.23
61488;BME280;47351;53.326;-6.298;2023-03-25T11:24:43;100010.92;;;15.79;47.46
61488;BME280;47351;53.326;-6.298;2023-03-25T11:27:40;100021.20;;;15.44;49.17
61488;BME280;47351;53.326;-6.298;2023-03-25T11:30:33;100025.99;;;14.70;50.92
61488;BME280;47351;53.326;-6.298;2023-03-25T11:33:24;100019.71;;;14.16;52.69
61488;BME280;47351;53.326;-6.298;2023-03-25T11:36:23;100017.58;;;14.56;53.42
61488;BME280;47351;53.326;-6.298;2023-03-25T11:39:17;99999.25;;;18.67;49.10
61488;BME280;47351;53.326;-6.298;2023-03-25T11:42:11;99988.92;;;21.89;43.97
61488;BME280;47351;53.326;-6.298;2023-03-25T11:45:03;99990.55;;;24.20;39.48
61488;BME280;47351;53.326;-6.298;2023-03-25T11:47:53;99992.14;;;22.96;38.79
61488;BME280;47351;53.326;-6.298;2023-03-25T11:50:47;99990.32;;;22.52;39.33
61488;BME280;47351;53.326;-6.298;2023-03-25T11:53:43;99990.18;;;22.28;39.08
61488;BME280;47351;53.326;-6.298;2023-03-25T11:56:37;99987.92;;;22.77;37.92
61488;BME280;47351;53.326;-6.298;2023-03-25T11:59:36;99978.70;;;24.97;35.55
61488;BME280;47351;53.326;-6.298;2023-03-25T12:02:27;99972.15;;;25.30;35.95
61488;BME280;47351;53.326;-6.298;2023-03-25T12:05:19;99972.05;;;26.26;34.45
61488;BME280;47351;53.326;-6.298;2023-03-25T12:08:14;99968.15;;;26.01;33.04
61488;BME280;47351;53.326;-6.298;2023-03-25T12:11:06;99969.80;;;23.99;34.69
61488;BME280;47351;53.326;-6.298;2023-03-25T12:14:11;99968.80;;;24.77;34.32
61488;BME280;47351;53.326;-6.298;2023-03-25T12:17:04;99963.43;;;27.01;32.30
61488;BME280;47351;53.326;-6.298;2023-03-25T12:20:02;99959.95;;;28.97;30.03
61488;BME280;47351;53.326;-6.298;2023-03-25T12:23:00;99952.60;;;30.42;29.00
61488;BME280;47351;53.326;-6.298;2023-03-25T12:25:53;99953.20;;;31.07;27.72
61488;BME280;47351;53.326;-6.298;2023-03-25T12:29:00;99951.54;;;29.80;28.22
61488;BME280;47351;53.326;-6.298;2023-03-25T12:31:59;99960.86;;;28.10;28.58
61488;BME280;47351;53.326;-6.298;2023-03-25T12:34:58;99965.00;;;25.89;29.87
61488;BME280;47351;53.326;-6.298;2023-03-25T12:37:56;99968.43;;;23.79;31.36
61488;BME280;47351;53.326;-6.298;2023-03-25T12:40:53;99974.17;;;21.75;33.55
61488;BME280;47351;53.326;-6.298;2023-03-25T12:47:03;100007.94;;;18.19;41.19
61488;BME280;47351;53.326;-6.298;2023-03-25T12:50:03;100000.09;;;17.09;43.73
61488;BME280;47351;53.326;-6.298;2023-03-25T12:53:00;99994.48;;;16.42;46.05
61488;BME280;47351;53.326;-6.298;2023-03-25T12:55:58;99980.27;;;18.27;45.46
61488;BME280;47351;53.326;-6.298;2023-03-25T12:59:12;99983.41;;;18.99;45.05
61488;BME280;47351;53.326;-6.298;2023-03-25T13:02:13;99970.23;;;20.29;43.46
61488;BME280;47351;53.326;-6.298;2023-03-25T13:05:18;99964.28;;;23.84;40.16
61488;BME280;47351;53.326;-6.298;2023-03-25T13:08:13;99964.55;;;24.13;38.05
61488;BME280;47351;53.326;-6.298;2023-03-25T13:11:06;99967.64;;;22.45;39.15
61488;BME280;47351;53.326;-6.298;2023-03-25T13:13:59;99976.87;;;20.80;40.50
61488;BME280;47351;53.326;-6.298;2023-03-25T13:16:54;99987.00;;;19.46;41.45
61488;BME280;47351;53.326;-6.298;2023-03-25T13:19:46;99981.66;;;20.12;41.00
61488;BME280;47351;53.326;-6.298;2023-03-25T13:22:39;99972.86;;;21.61;39.14
61488;BME280;47351;53.326;-6.298;2023-03-25T13:25:33;99967.89;;;22.83;37.62
61488;BME280;47351;53.326;-6.298;2023-03-25T13:28:30;99967.27;;;23.52;36.52
61488;BME280;47351;53.326;-6.298;2023-03-25T13:31:27;99959.00;;;22.29;37.61
61488;BME280;47351;53.326;-6.298;2023-03-25T13:34:21;99960.30;;;22.10;38.19
61488;BME280;47351;53.326;-6.298;2023-03-25T13:37:16;99970.46;;;21.76;38.59
61488;BME280;47351;53.326;-6.298;2023-03-25T13:40:19;99963.60;;;21.04;39.92
61488;BME280;47351;53.326;-6.298;2023-03-25T13:43:13;99963.19;;;21.02;40.28
61488;BME280;47351;53.326;-6.298;2023-03-25T13:46:07;99949.23;;;23.02;38.35
61488;BME280;47351;53.326;-6.298;2023-03-25T13:49:01;99939.05;;;24.72;36.12
61488;BME280;47351;53.326;-6.298;2023-03-25T13:51:54;99937.36;;;24.70;35.79
61488;BME280;47351;53.326;-6.298;2023-03-25T13:54:45;99933.07;;;24.46;35.26
61488;BME280;47351;53.326;-6.298;2023-03-25T13:57:56;99928.61;;;24.78;35.16
61488;BME280;47351;53.326;-6.298;2023-03-25T14:01:00;99936.86;;;23.22;35.82
61488;BME280;47351;53.326;-6.298;2023-03-25T14:10:37;99924.30;;;22.12;35.74
61488;BME280;47351;53.326;-6.298;2023-03-25T14:13:32;99924.77;;;21.30;35.94
61488;BME280;47351;53.326;-6.298;2023-03-25T14:16:26;99925.27;;;20.00;37.41
61488;BME280;47351;53.326;-6.298;2023-03-25T14:19:21;99931.08;;;19.20;38.82
61488;BME280;47351;53.326;-6.298;2023-03-25T14:22:16;99932.18;;;18.49;39.57
61488;BME280;47351;53.326;-6.298;2023-03-25T14:25:14;99933.65;;;17.80;40.65
61488;BME280;47351;53.326;-6.298;2023-03-25T14:28:11;99950.93;;;17.03;41.60
61488;BME280;47351;53.326;-6.298;2023-03-25T14:31:14;99958.61;;;16.43;43.37
61488;BME280;47351;53.326;-6.298;2023-03-25T14:34:12;99976.85;;;15.75;46.28
61488;BME280;47351;53.326;-6.298;2023-03-25T14:40:45;99980.27;;;14.09;51.06
61488;BME280;47351;53.326;-6.298;2023-03-25T14:43:54;99981.08;;;13.57;53.42
61488;BME280;47351;53.326;-6.298;2023-03-25T14:47:00;99979.98;;;13.48;54.87
61488;BME280;47351;53.326;-6.298;2023-03-25T14:50:00;99982.27;;;13.54;55.59
61488;BME280;47351;53.326;-6.298;2023-03-25T14:52:56;99982.06;;;13.50;56.61
61488;BME280;47351;53.326;-6.298;2023-03-25T14:55:58;99978.45;;;13.33;57.18
61488;BME280;47351;53.326;-6.298;2023-03-25T14:59:11;99972.42;;;13.05;57.94
61488;BME280;47351;53.326;-6.298;2023-03-25T15:02:12;99975.43;;;12.83;58.80
61488;BME280;47351;53.326;-6.298;2023-03-25T15:05:25;99975.25;;;12.63;59.31
61488;BME280;47351;53.326;-6.298;2023-03-25T15:08:29;99974.31;;;12.72;60.04
61488;BME280;47351;53.326;-6.298;2023-03-25T15:11:34;99957.80;;;13.38;59.93
61488;BME280;47351;53.326;-6.298;2023-03-25T15:14:32;99950.77;;;13.85;59.86
61488;BME280;47351;53.326;-6.298;2023-03-25T15:17:40;99946.30;;;14.16;59.38
61488;BME280;47351;53.326;-6.298;2023-03-25T15:20:43;99942.21;;;14.60;58.79
61488;BME280;47351;53.326;-6.298;2023-03-25T15:23:46;99938.88;;;14.85;58.37
61488;BME280;47351;53.326;-6.298;2023-03-25T15:26:41;99937.83;;;14.75;58.32
61488;BME280;47351;53.326;-6.298;2023-03-25T15:29:50;99938.40;;;14.61;58.26
61488;BME280;47351;53.326;-6.298;2023-03-25T15:32:54;99937.75;;;14.66;58.11
61488;BME280;47351;53.326;-6.298;2023-03-25T15:35:51;99940.52;;;14.62;58.11
61488;BME280;47351;53.326;-6.298;2023-03-25T15:38:48;99941.65;;;14.32;58.09
61488;BME280;47351;53.326;-6.298;2023-03-25T15:41:50;99942.80;;;13.99;58.75
61488;BME280;47351;53.326;-6.298;2023-03-25T15:48:07;99934.38;;;13.65;60.51
61488;BME280;47351;53.326;-6.298;2023-03-25T15:51:10;99927.23;;;13.74;60.69
61488;BME280;47351;53.326;-6.298;2023-03-25T15:54:13;99924.11;;;13.84;60.62
61488;BME280;47351;53.326;-6.298;2023-03-25T15:57:15;99920.22;;;13.92;60.54
61488;BME280;47351;53.326;-6.298;2023-03-25T16:00:13;99915.38;;;13.90;60.34
61488;BME280;47351;53.326;-6.298;2023-03-25T16:03:12;99915.31;;;13.78;59.95
61488;BME280;47351;53.326;-6.298;2023-03-25T16:06:04;99904.05;;;13.64;59.61
61488;BME280;47351;53.326;-6.298;2023-03-25T16:09:01;99901.34;;;13.62;59.78
61488;BME280;47351;53.326;-6.298;2023-03-25T16:11:59;99897.70;;;13.69;59.88
61488;BME280;47351;53.326;-6.298;2023-03-25T16:15:03;99896.15;;;13.80;59.41
61488;BME280;47351;53.326;-6.298;2023-03-25T16:18:07;99890.98;;;13.90;59.22
61488;BME280;47351;53.326;-6.298;2023-03-25T16:20:59;99886.59;;;14.07;59.25
61488;BME280;47351;53.326;-6.298;2023-03-25T16:24:03;99887.30;;;14.22;59.06
61488;BME280;47351;53.326;-6.298;2023-03-25T16:27:00;99885.67;;;14.42;59.49
61488;BME280;47351;53.326;-6.298;2023-03-25T16:30:01;99875.71;;;14.64;59.05
61488;BME280;47351;53.326;-6.298;2023-03-25T16:33:12;99867.94;;;14.82;58.50